Aviation Digital Data Service (ADDS)

Output produced by METARs form (0511 UTC 20 April 2018)
found at http://aviationweather.gov/adds/metars/
 
KSCH 200152Z 29012G17KT 10SM BKN090 OVC120 02/M02 A2994 RMK LAST